Huvudsida
METAR-TAF:

METAR-TAF

Flygplatser :

Caracas, Venezuela

latitud: 10-36N, longitud: 066-59W, höjd: 43 m

Aktuellt väderrapport

Denna rapport gjordes för 1 timme och 10 minuter sedan, klockan 12:00 UTC
Vind 4 kt från ost/sydost
Temperatur 25°C
Fuktighet 74%
Tryck 1012 hPa
Sikt 10 km eller mer
Brutna moln på en höjd av 1600 ft

METAR: SVMI 201200Z 11004KT 9999 BKN016 25/20 Q1012

Tid: 09:10 (13:10 UTC)

Väderprognos

Denna rapport gjordes för 3 timmar och 10 minuter sedan, klockan 10:00 UTC
Prognos gäller från 20 kl. 12 UTC till 21 kl. 12 UTC
Vind kt från nord
Sikt 10 km eller mer
Brutna moln på en höjd av 1600 ft
Temporärt
från 20 kl. 12 UTC till 20 kl. 16 UTC
Vind 10 kt från ost
Spridda moln på en höjd av 1600 ft

TAF: SVMI 201000Z 2012/2112 00000KT 9999 BKN016 TX24/19Z TN22/09Z TEMPO 2012/2016 08010KT SCT016

Aktuella väderrapporter och prognoser från 4000 flygplatser (METAR- och TAF-rapporter).

De tillgängliga stationerna syns som gula och röda prickar på kartan.

För musen över prickarna för att se namnen på stationerna.

Klicka sedan för att få väderrapporter och prognoser.

För att ändra kartan: Klicka på de gröna knapparna med ett svart kors på för att zooma in; den gröna knappen med ett streck på för att zooma ut; eller på de gröna pilarna för angränsande kartor.


METAR-TAF: